createdAt,value
2024-05-09T00:00:50.826Z,101167.50
2024-05-09T00:02:31.856Z,101173.50
2024-05-09T00:04:12.461Z,101167.44
2024-05-09T00:05:53.346Z,101166.84
2024-05-09T00:07:34.668Z,101171.06
2024-05-09T00:09:15.201Z,101172.25
2024-05-09T00:10:55.603Z,101170.56
2024-05-09T00:12:36.303Z,101171.22
2024-05-09T00:14:16.684Z,101172.25
2024-05-09T00:15:57.614Z,101172.94
2024-05-09T00:17:38.416Z,101175.44
2024-05-09T00:19:19.475Z,101176.91
2024-05-09T00:21:00.423Z,101176.31
2024-05-09T00:22:41.027Z,101180.16
2024-05-09T00:24:21.363Z,101174.53
2024-05-09T00:26:02.126Z,101184.00
2024-05-09T00:27:43.173Z,101178.00
2024-05-09T00:29:23.841Z,101185.28
2024-05-09T00:31:04.744Z,101181.69
2024-05-09T00:32:45.148Z,101177.91
2024-05-09T00:34:26.506Z,101181.19
2024-05-09T00:36:07.383Z,101176.72
2024-05-09T00:37:47.593Z,101175.50
2024-05-09T00:39:28.209Z,101176.44
2024-05-09T00:41:08.635Z,101171.28
2024-05-09T00:42:49.551Z,101167.56
2024-05-09T00:44:30.324Z,101170.47
2024-05-09T00:46:11.492Z,101168.03
2024-05-09T00:47:52.200Z,101172.63
2024-05-09T00:49:33.998Z,101165.78
2024-05-09T00:51:14.651Z,101168.41
2024-05-09T00:52:56.578Z,101162.03
2024-05-09T00:54:36.904Z,101159.13
2024-05-09T00:56:17.558Z,101159.25
2024-05-09T00:57:58.216Z,101150.56
2024-05-09T00:59:39.485Z,101155.25
2024-05-09T01:01:23.729Z,101153.56
2024-05-09T01:03:04.691Z,101158.06
2024-05-09T01:04:45.460Z,101158.06
2024-05-09T01:06:26.467Z,101161.25
2024-05-09T01:08:08.257Z,101155.06
2024-05-09T01:09:48.815Z,101152.19
2024-05-09T01:11:40.558Z,101158.06
2024-05-09T01:13:20.719Z,101151.16
2024-05-09T01:15:01.011Z,101154.69
2024-05-09T01:16:42.528Z,101161.47
2024-05-09T01:18:23.638Z,101156.22
2024-05-09T01:20:06.403Z,101164.06
2024-05-09T01:21:50.628Z,101162.97
2024-05-09T01:23:31.650Z,101160.22
2024-05-09T01:25:12.804Z,101158.28
2024-05-09T01:26:53.386Z,101155.09
2024-05-09T01:28:33.993Z,101152.66
2024-05-09T01:30:17.468Z,101166.88
2024-05-09T01:32:04.745Z,101162.41
2024-05-09T01:33:45.442Z,101167.28
2024-05-09T01:35:26.056Z,101161.09
2024-05-09T01:37:06.962Z,101155.19
2024-05-09T01:38:47.565Z,101162.19
2024-05-09T01:40:36.454Z,101160.59
2024-05-09T01:42:19.822Z,101159.22
2024-05-09T01:44:00.742Z,101158.94
2024-05-09T01:45:41.546Z,101156.03
2024-05-09T01:47:22.600Z,101150.78
2024-05-09T01:49:04.535Z,101163.22
2024-05-09T01:50:45.132Z,101165.97
2024-05-09T01:52:25.694Z,101167.56
2024-05-09T01:54:06.736Z,101167.00
2024-05-09T01:55:47.600Z,101162.66
2024-05-09T01:57:28.847Z,101170.38
2024-05-09T01:59:10.611Z,101170.66
2024-05-09T02:00:51.478Z,101170.66
2024-05-09T02:02:32.361Z,101170.66
2024-05-09T02:04:12.865Z,101163.88
2024-05-09T02:05:54.024Z,101165.59
2024-05-09T02:07:35.258Z,101166.44
2024-05-09T02:09:15.894Z,101162.09
2024-05-09T02:10:56.334Z,101158.75
2024-05-09T02:12:37.082Z,101168.00
2024-05-09T02:14:18.988Z,101155.06
2024-05-09T02:15:59.718Z,101160.41
2024-05-09T02:17:40.374Z,101161.91
2024-05-09T02:19:21.302Z,101163.13
2024-05-09T02:21:02.120Z,101164.25
2024-05-09T02:22:42.923Z,101166.84
2024-05-09T02:24:23.435Z,101165.84
2024-05-09T02:26:03.675Z,101166.84
2024-05-09T02:27:44.568Z,101167.88
2024-05-09T02:29:25.248Z,101163.84
2024-05-09T02:31:06.526Z,101168.06
2024-05-09T02:32:47.125Z,101165.53
2024-05-09T02:34:28.055Z,101162.34
2024-05-09T02:36:09.653Z,101158.88
2024-05-09T02:37:49.959Z,101166.25
2024-05-09T02:39:30.780Z,101157.47
2024-05-09T02:41:11.531Z,101149.34
2024-05-09T02:42:52.138Z,101157.09
2024-05-09T02:44:32.726Z,101161.69
2024-05-09T02:46:13.719Z,101157.06
2024-05-09T02:47:54.437Z,101165.38
2024-05-09T02:49:35.255Z,101163.28
2024-05-09T02:51:15.619Z,101166.75
2024-05-09T02:52:56.404Z,101165.38
2024-05-09T02:54:36.985Z,101158.63
2024-05-09T02:56:17.736Z,101162.06
2024-05-09T02:57:58.462Z,101162.25
2024-05-09T02:59:38.911Z,101159.72
2024-05-09T03:01:19.723Z,101160.41
2024-05-09T03:03:00.603Z,101157.84
2024-05-09T03:04:42.844Z,101159.13
2024-05-09T03:06:23.523Z,101156.13
2024-05-09T03:08:05.044Z,101151.66
2024-05-09T03:09:47.136Z,101151.00
2024-05-09T03:11:27.892Z,101152.28
2024-05-09T03:13:11.354Z,101152.47
2024-05-09T03:14:51.507Z,101150.63
2024-05-09T03:16:37.865Z,101151.25
2024-05-09T03:18:18.649Z,101150.03
2024-05-09T03:19:59.706Z,101156.47
2024-05-09T03:21:40.730Z,101151.00
2024-05-09T03:23:21.803Z,101151.91
2024-05-09T03:25:02.823Z,101148.44
2024-05-09T03:26:43.146Z,101155.47
2024-05-09T03:28:24.195Z,101154.53
2024-05-09T03:30:07.366Z,101155.47
2024-05-09T03:31:48.537Z,101156.31
2024-05-09T03:33:29.449Z,101156.66
2024-05-09T03:35:10.560Z,101160.13
2024-05-09T03:36:51.325Z,101160.44
2024-05-09T03:38:37.479Z,101162.06
2024-05-09T03:40:23.463Z,101165.19
2024-05-09T03:42:06.625Z,101160.19
2024-05-09T03:43:47.237Z,101161.91
2024-05-09T03:45:27.694Z,101159.63
2024-05-09T03:47:08.489Z,101161.56
2024-05-09T03:48:49.158Z,101167.66
2024-05-09T03:50:33.796Z,101163.50
2024-05-09T03:52:16.587Z,101161.31
2024-05-09T03:53:57.866Z,101163.50
2024-05-09T03:55:40.269Z,101166.72
2024-05-09T03:57:21.235Z,101166.41
2024-05-09T03:59:01.862Z,101161.56
2024-05-09T04:00:42.807Z,101164.78
2024-05-09T04:02:23.335Z,101159.63
2024-05-09T04:04:04.301Z,101162.91
2024-05-09T04:05:45.383Z,101166.56
2024-05-09T04:07:26.290Z,101166.28
2024-05-09T04:09:07.322Z,101161.63
2024-05-09T04:10:47.956Z,101168.31
2024-05-09T04:12:28.392Z,101165.69
2024-05-09T04:14:09.053Z,101170.69
2024-05-09T04:15:49.662Z,101175.91
2024-05-09T04:17:30.443Z,101171.09
2024-05-09T04:19:11.751Z,101174.50
2024-05-09T04:20:52.187Z,101169.63
2024-05-09T04:22:32.646Z,101164.19
2024-05-09T04:24:13.202Z,101165.78
2024-05-09T04:25:53.995Z,101165.63
2024-05-09T04:27:34.656Z,101165.44
2024-05-09T04:29:15.547Z,101170.50
2024-05-09T04:30:56.231Z,101168.81
2024-05-09T04:32:36.618Z,101177.69
2024-05-09T04:34:17.876Z,101173.66
2024-05-09T04:35:58.396Z,101175.59
2024-05-09T04:37:39.189Z,101176.94
2024-05-09T04:39:20.028Z,101188.50
2024-05-09T04:41:00.756Z,101184.72
2024-05-09T04:42:41.917Z,101184.22
2024-05-09T04:44:22.576Z,101186.91
2024-05-09T04:46:04.118Z,101182.91
2024-05-09T04:47:44.636Z,101180.47
2024-05-09T04:49:25.935Z,101185.63
2024-05-09T04:51:07.356Z,101178.22
2024-05-09T04:52:48.088Z,101181.13
2024-05-09T04:54:35.795Z,101180.03
2024-05-09T04:56:17.471Z,101182.09
2024-05-09T04:57:58.238Z,101186.16
2024-05-09T04:59:40.232Z,101187.69
2024-05-09T05:01:20.822Z,101188.28
2024-05-09T05:03:05.715Z,101190.72
2024-05-09T05:04:46.833Z,101186.41
2024-05-09T05:06:27.381Z,101182.53
2024-05-09T05:08:12.887Z,101186.91
2024-05-09T05:09:54.255Z,101188.25
2024-05-09T05:11:34.734Z,101192.03
2024-05-09T05:13:23.859Z,101188.47
2024-05-09T05:15:05.591Z,101185.91
2024-05-09T05:16:46.292Z,101181.50
2024-05-09T05:18:28.134Z,101181.31
2024-05-09T05:20:12.616Z,101180.38
2024-05-09T05:21:56.093Z,101179.31
2024-05-09T05:23:36.529Z,101179.97
2024-05-09T05:25:17.885Z,101185.78
2024-05-09T05:26:58.165Z,101179.63
2024-05-09T05:28:38.803Z,101183.28
2024-05-09T05:30:25.088Z,101185.66
2024-05-09T05:32:09.555Z,101192.97
2024-05-09T05:33:50.310Z,101193.03
2024-05-09T05:35:31.538Z,101193.59
2024-05-09T05:37:11.750Z,101191.09
2024-05-09T05:38:52.373Z,101193.50
2024-05-09T05:40:36.795Z,101190.63
2024-05-09T05:42:18.938Z,101195.56
2024-05-09T05:43:59.794Z,101202.94
2024-05-09T05:45:40.064Z,101193.38
2024-05-09T05:47:20.766Z,101197.69
2024-05-09T05:49:01.591Z,101200.31
2024-05-09T05:50:43.005Z,101205.28
2024-05-09T05:52:23.808Z,101207.84
2024-05-09T05:54:04.177Z,101206.16
2024-05-09T05:55:44.631Z,101205.59
2024-05-09T05:57:25.194Z,101208.94
2024-05-09T05:59:05.599Z,101201.34
2024-05-09T06:00:46.641Z,101208.88
2024-05-09T06:02:27.519Z,101208.47
2024-05-09T06:04:08.512Z,101216.28
2024-05-09T06:05:49.083Z,101213.75
2024-05-09T06:07:29.538Z,101212.44
2024-05-09T06:09:10.366Z,101205.59
2024-05-09T06:10:50.659Z,101208.75
2024-05-09T06:12:31.435Z,101210.47
2024-05-09T06:14:12.064Z,101204.03
2024-05-09T06:15:52.563Z,101211.66
2024-05-09T06:17:33.222Z,101207.41
2024-05-09T06:19:14.157Z,101202.84
2024-05-09T06:20:54.491Z,101211.50
2024-05-09T06:22:35.341Z,101208.63
2024-05-09T06:24:17.808Z,101204.00
2024-05-09T06:25:58.445Z,101204.84
2024-05-09T06:27:40.002Z,101199.56
2024-05-09T06:29:20.168Z,101193.63
2024-05-09T06:31:01.849Z,101202.19
2024-05-09T06:32:45.722Z,101199.69
2024-05-09T06:34:26.784Z,101195.66
2024-05-09T06:36:08.243Z,101194.38
2024-05-09T06:37:48.598Z,101197.84
2024-05-09T06:39:29.103Z,101199.97
2024-05-09T06:41:09.914Z,101203.06
2024-05-09T06:42:50.539Z,101202.97
2024-05-09T06:44:31.376Z,101207.47
2024-05-09T06:46:12.469Z,101201.28
2024-05-09T06:47:53.323Z,101191.78
2024-05-09T06:49:34.406Z,101197.09
2024-05-09T06:51:15.504Z,101187.84
2024-05-09T06:52:56.117Z,101187.84
2024-05-09T06:54:37.732Z,101179.09
2024-05-09T06:56:18.296Z,101191.13
2024-05-09T06:57:58.861Z,101185.69
2024-05-09T06:59:39.606Z,101188.91
2024-05-09T07:01:20.674Z,101194.44
2024-05-09T07:03:05.480Z,101185.28
2024-05-09T07:04:47.014Z,101181.00
2024-05-09T07:06:27.887Z,101184.84
2024-05-09T07:08:08.732Z,101188.31
2024-05-09T07:09:49.714Z,101187.88
2024-05-09T07:11:31.704Z,101179.75
2024-05-09T07:13:13.569Z,101179.75
2024-05-09T07:14:54.613Z,101180.09
2024-05-09T07:16:35.212Z,101173.41
2024-05-09T07:18:17.732Z,101175.88
2024-05-09T07:20:00.158Z,101176.63
2024-05-09T07:21:40.992Z,101173.59
2024-05-09T07:23:21.568Z,101170.41
2024-05-09T07:25:02.841Z,101177.47
2024-05-09T07:26:43.584Z,101166.28
2024-05-09T07:28:24.878Z,101169.16
2024-05-09T07:30:07.341Z,101167.81
2024-05-09T07:31:48.045Z,101164.47
2024-05-09T07:33:29.374Z,101167.28
2024-05-09T07:35:10.172Z,101167.16
2024-05-09T07:36:52.536Z,101168.78
2024-05-09T07:38:32.914Z,101162.06
2024-05-09T07:40:24.086Z,101167.47
2024-05-09T07:42:09.482Z,101160.63
2024-05-09T07:43:50.140Z,101155.94
2024-05-09T07:45:47.787Z,101151.06
2024-05-09T07:48:57.362Z,101151.78
2024-05-09T07:53:35.964Z,101146.16
2024-05-09T07:55:01.308Z,101153.28
2024-05-09T07:56:42.162Z,101143.59
2024-05-09T07:58:27.493Z,101149.59
2024-05-09T08:00:11.742Z,101154.25
2024-05-09T08:01:54.952Z,101151.44
2024-05-09T08:03:35.550Z,101139.25
2024-05-09T08:05:16.638Z,101143.06
2024-05-09T08:06:57.509Z,101144.25
2024-05-09T08:08:38.083Z,101143.25
2024-05-09T08:10:22.257Z,101146.53
2024-05-09T08:12:09.508Z,101139.53
2024-05-09T08:13:51.005Z,101141.09
2024-05-09T08:15:31.494Z,101130.16
2024-05-09T08:17:14.637Z,101133.56
2024-05-09T08:18:55.387Z,101134.84
2024-05-09T08:20:39.946Z,101134.06
2024-05-09T08:22:20.427Z,101134.81
2024-05-09T08:24:01.023Z,101129.81
2024-05-09T08:25:41.437Z,101124.16
2024-05-09T08:27:21.913Z,101124.16
2024-05-09T08:29:02.965Z,101110.47
2024-05-09T08:30:44.190Z,101105.84
2024-05-09T08:32:27.316Z,101114.59
2024-05-09T08:34:10.043Z,101107.78
2024-05-09T08:35:50.867Z,101106.44
2024-05-09T08:37:36.672Z,101108.69
2024-05-09T08:39:19.315Z,101111.19
2024-05-09T08:41:03.541Z,101104.41
2024-05-09T08:42:52.759Z,101111.78
2024-05-09T08:44:37.055Z,101108.63
2024-05-09T08:46:19.042Z,101112.84
2024-05-09T08:48:01.514Z,101107.63
2024-05-09T08:49:42.423Z,101109.97
2024-05-09T08:51:23.881Z,101120.03
2024-05-09T08:53:04.227Z,101110.00
2024-05-09T08:54:45.126Z,101113.06
2024-05-09T08:56:28.528Z,101110.69
2024-05-09T08:58:10.467Z,101112.03
2024-05-09T08:59:52.710Z,101102.03
2024-05-09T09:01:35.776Z,101107.06
2024-05-09T09:03:24.910Z,101100.06
2024-05-09T09:05:16.846Z,101094.75
2024-05-09T09:06:59.777Z,101096.59
2024-05-09T09:08:41.429Z,101099.72
2024-05-09T09:10:29.745Z,101093.34
2024-05-09T09:12:13.197Z,101096.25
2024-05-09T09:13:54.057Z,101097.19
2024-05-09T09:15:35.029Z,101090.47
2024-05-09T09:17:16.478Z,101097.75
2024-05-09T09:18:57.748Z,101088.03
2024-05-09T09:20:38.842Z,101091.38
2024-05-09T09:22:19.907Z,101093.25
2024-05-09T09:24:00.585Z,101097.56
2024-05-09T09:25:41.941Z,101099.28
2024-05-09T09:27:22.310Z,101089.19
2024-05-09T09:29:02.860Z,101095.88
2024-05-09T09:30:44.475Z,101093.81
2024-05-09T09:32:29.172Z,101096.97
2024-05-09T09:34:10.064Z,101104.41
2024-05-09T09:35:51.232Z,101091.06
2024-05-09T09:37:32.414Z,101091.97
2024-05-09T09:39:17.987Z,101091.50
2024-05-09T09:41:01.832Z,101088.28
2024-05-09T09:42:43.652Z,101091.34
2024-05-09T09:44:25.283Z,101091.63
2024-05-09T09:46:09.545Z,101085.22
2024-05-09T09:47:57.155Z,101088.88
2024-05-09T09:49:39.604Z,101083.22
2024-05-09T09:51:22.040Z,101087.88
2024-05-09T09:53:04.891Z,101089.47
2024-05-09T09:54:45.737Z,101079.50
2024-05-09T09:56:30.352Z,101088.94
2024-05-09T09:58:13.489Z,101084.03
2024-05-09T09:59:57.529Z,101079.25
2024-05-09T10:01:37.956Z,101078.19
2024-05-09T10:03:18.669Z,101086.31
2024-05-09T10:05:00.395Z,101084.13
2024-05-09T10:06:44.397Z,101080.63
2024-05-09T10:08:25.596Z,101079.88
2024-05-09T10:10:07.080Z,101081.88
2024-05-09T10:11:51.962Z,101079.22
2024-05-09T10:13:35.527Z,101077.41
2024-05-09T10:15:20.102Z,101070.19
2024-05-09T10:17:05.360Z,101079.25
2024-05-09T10:18:46.312Z,101087.75
2024-05-09T10:20:30.892Z,101076.44
2024-05-09T10:22:14.155Z,101072.50
2024-05-09T10:23:59.928Z,101068.50
2024-05-09T10:25:40.519Z,101078.41
2024-05-09T10:27:28.751Z,101065.75
2024-05-09T10:29:13.935Z,101067.47
2024-05-09T10:31:02.449Z,101060.28
2024-05-09T10:32:44.952Z,101061.09
2024-05-09T10:34:33.885Z,101058.53
2024-05-09T10:36:18.570Z,101064.31
2024-05-09T10:38:06.175Z,101052.41
2024-05-09T10:39:46.747Z,101052.06
2024-05-09T10:41:27.737Z,101044.34
2024-05-09T10:43:09.506Z,101045.91
2024-05-09T10:44:49.768Z,101056.44
2024-05-09T10:46:30.523Z,101062.69
2024-05-09T10:48:11.808Z,101053.78
2024-05-09T10:49:52.687Z,101046.41
2024-05-09T10:51:33.898Z,101053.66
2024-05-09T10:53:14.794Z,101049.66
2024-05-09T10:54:55.511Z,101050.72
2024-05-09T10:56:36.418Z,101054.00
2024-05-09T10:58:18.104Z,101055.66
2024-05-09T10:59:59.778Z,101052.69
2024-05-09T11:01:40.727Z,101053.53
2024-05-09T11:03:23.215Z,101047.44
2024-05-09T11:05:05.489Z,101045.06
2024-05-09T11:06:47.237Z,101046.72
2024-05-09T11:08:28.765Z,101041.63
2024-05-09T11:10:12.619Z,101040.69
2024-05-09T11:11:55.290Z,101037.47
2024-05-09T11:13:37.638Z,101043.00
2024-05-09T11:15:18.389Z,101051.72
2024-05-09T11:17:07.078Z,101044.13
2024-05-09T11:18:55.919Z,101042.94
2024-05-09T11:20:37.999Z,101044.94
2024-05-09T11:22:18.889Z,101050.63
2024-05-09T11:23:59.467Z,101036.91
2024-05-09T11:25:40.574Z,101035.94
2024-05-09T11:27:21.010Z,101035.69
2024-05-09T11:29:01.956Z,101040.81
2024-05-09T11:30:42.786Z,101029.94
2024-05-09T11:32:30.299Z,101028.06
2024-05-09T11:34:10.844Z,101025.81
2024-05-09T11:35:51.295Z,101029.06
2024-05-09T11:37:36.039Z,101023.00
2024-05-09T11:39:18.110Z,101021.75
2024-05-09T11:40:58.643Z,101021.41
2024-05-09T11:42:39.595Z,101022.16
2024-05-09T11:44:20.117Z,101013.00
2024-05-09T11:46:03.028Z,101016.34
2024-05-09T11:47:43.698Z,101013.16
2024-05-09T11:49:26.776Z,101012.78
2024-05-09T11:51:07.702Z,101006.88
2024-05-09T11:52:48.431Z,101002.22
2024-05-09T11:54:28.739Z,100999.34
2024-05-09T11:56:12.016Z,100998.16
2024-05-09T11:57:53.037Z,101006.97
2024-05-09T11:59:33.835Z,101004.19
2024-05-09T12:01:14.429Z,101009.13
2024-05-09T12:02:58.872Z,100996.44
2024-05-09T12:04:39.512Z,101002.91
2024-05-09T12:06:20.842Z,101005.44
2024-05-09T12:08:00.982Z,100995.34
2024-05-09T12:09:41.721Z,100994.28
2024-05-09T12:11:22.419Z,100992.56
2024-05-09T12:13:05.225Z,100987.72
2024-05-09T12:14:47.156Z,100994.66
2024-05-09T12:16:27.879Z,100987.50
2024-05-09T12:18:08.740Z,100991.09
2024-05-09T12:19:49.478Z,100987.44
2024-05-09T12:21:30.223Z,100987.28
2024-05-09T12:23:10.921Z,100981.88
2024-05-09T12:24:51.834Z,100977.63
2024-05-09T12:26:33.075Z,100982.22
2024-05-09T12:28:14.613Z,100980.22
2024-05-09T12:29:55.114Z,100980.31
2024-05-09T12:31:35.823Z,100973.84
2024-05-09T12:33:16.419Z,100981.22
2024-05-09T12:34:57.259Z,100971.13
2024-05-09T12:36:37.926Z,100976.44
2024-05-09T12:38:18.678Z,100972.19
2024-05-09T12:39:59.266Z,100963.78
2024-05-09T12:41:39.695Z,100972.13
2024-05-09T12:43:20.122Z,100971.31
2024-05-09T12:45:00.473Z,100959.31
2024-05-09T12:46:41.135Z,100964.63
2024-05-09T12:48:21.992Z,100958.47
2024-05-09T12:50:04.908Z,100956.84
2024-05-09T12:51:46.027Z,100949.09
2024-05-09T12:53:27.023Z,100954.00
2024-05-09T12:55:07.946Z,100957.03
2024-05-09T12:56:48.622Z,100950.88
2024-05-09T12:58:29.286Z,100960.94
2024-05-09T13:00:20.214Z,100952.19
2024-05-09T13:02:04.873Z,100950.84
2024-05-09T13:03:45.741Z,100945.53
2024-05-09T13:05:26.538Z,100943.72
2024-05-09T13:07:08.109Z,100939.50
2024-05-09T13:08:48.794Z,100936.50
2024-05-09T13:10:32.723Z,100937.81
2024-05-09T13:12:14.445Z,100939.63
2024-05-09T13:13:55.228Z,100933.53
2024-05-09T13:15:37.262Z,100930.59
2024-05-09T13:17:18.010Z,100935.03
2024-05-09T13:18:58.775Z,100927.41
2024-05-09T13:20:39.328Z,100938.47
2024-05-09T13:22:19.963Z,100937.16
2024-05-09T13:24:00.615Z,100926.06
2024-05-09T13:25:41.719Z,100928.78
2024-05-09T13:27:22.998Z,100927.28
2024-05-09T13:29:03.803Z,100929.19
2024-05-09T13:30:44.503Z,100930.94
2024-05-09T13:32:25.342Z,100922.84
2024-05-09T13:34:06.039Z,100927.91
2024-05-09T13:35:49.765Z,100917.06
2024-05-09T13:37:33.063Z,100921.22
2024-05-09T13:39:13.518Z,100914.84
2024-05-09T13:40:54.382Z,100919.81
2024-05-09T13:42:34.723Z,100913.91
2024-05-09T13:44:15.492Z,100908.28
2024-05-09T13:45:57.446Z,100911.09
2024-05-09T13:47:38.236Z,100908.91
2024-05-09T13:49:18.889Z,100907.13
2024-05-09T13:50:59.728Z,100908.16
2024-05-09T13:52:40.404Z,100900.56
2024-05-09T13:54:22.622Z,100905.47
2024-05-09T13:56:03.891Z,100897.97
2024-05-09T13:57:44.838Z,100894.97
2024-05-09T13:59:25.077Z,100894.69
2024-05-09T14:01:05.831Z,100892.06
2024-05-09T14:02:46.983Z,100901.09
2024-05-09T14:04:27.644Z,100891.88
2024-05-09T14:06:11.278Z,100886.00
2024-05-09T14:07:53.607Z,100888.78
2024-05-09T14:09:34.078Z,100883.78
2024-05-09T14:11:14.961Z,100880.41
2024-05-09T14:12:55.955Z,100876.00
2024-05-09T14:14:35.985Z,100882.66
2024-05-09T14:16:17.079Z,100879.16
2024-05-09T14:17:57.713Z,100875.16
2024-05-09T14:19:38.064Z,100874.25
2024-05-09T14:21:18.436Z,100876.06
2024-05-09T14:23:00.557Z,100867.50
2024-05-09T14:24:40.987Z,100864.25
2024-05-09T14:26:21.763Z,100857.44
2024-05-09T14:28:02.307Z,100851.63
2024-05-09T14:29:42.884Z,100857.78
2024-05-09T14:31:23.958Z,100858.28
2024-05-09T14:33:06.496Z,100864.53
2024-05-09T14:34:48.412Z,100860.88
2024-05-09T14:36:29.101Z,100859.28
2024-05-09T14:38:10.163Z,100861.34
2024-05-09T14:39:51.023Z,100857.50
2024-05-09T14:41:32.247Z,100853.63
2024-05-09T14:43:15.126Z,100847.94
2024-05-09T14:44:56.491Z,100857.41
2024-05-09T14:46:36.899Z,100852.19
2024-05-09T14:48:19.867Z,100856.31
2024-05-09T14:50:01.205Z,100845.66
2024-05-09T14:51:47.064Z,100849.28
2024-05-09T14:53:28.494Z,100846.94
2024-05-09T14:55:12.191Z,100835.72
2024-05-09T14:56:54.769Z,100836.91
2024-05-09T14:58:35.634Z,100836.06
2024-05-09T15:00:24.820Z,100835.88
2024-05-09T15:02:09.277Z,100835.03
2024-05-09T15:03:50.014Z,100840.66
2024-05-09T15:05:30.867Z,100831.91
2024-05-09T15:07:11.639Z,100833.09
2024-05-09T15:08:56.820Z,100830.38
2024-05-09T15:10:37.855Z,100825.19
2024-05-09T15:12:18.750Z,100831.09
2024-05-09T15:13:59.389Z,100822.06
2024-05-09T15:15:40.483Z,100824.63
2024-05-09T15:17:20.862Z,100835.06
2024-05-09T15:19:01.701Z,100809.88
2024-05-09T15:20:44.798Z,100817.69
2024-05-09T15:22:25.655Z,100809.44
2024-05-09T15:24:06.585Z,100814.78
2024-05-09T15:25:47.415Z,100804.31
2024-05-09T15:27:28.194Z,100802.00
2024-05-09T15:29:08.549Z,100807.81
2024-05-09T15:30:49.280Z,100811.13
2024-05-09T15:32:30.186Z,100798.66
2024-05-09T15:34:11.059Z,100801.41
2024-05-09T15:35:51.656Z,100802.19
2024-05-09T15:37:32.760Z,100801.31
2024-05-09T15:39:13.424Z,100798.25
2024-05-09T15:40:54.317Z,100792.53
2024-05-09T15:42:34.771Z,100799.84
2024-05-09T15:44:15.186Z,100800.53
2024-05-09T15:45:55.767Z,100797.28
2024-05-09T15:47:37.950Z,100791.69
2024-05-09T15:49:19.192Z,100781.31
2024-05-09T15:50:59.996Z,100787.13
2024-05-09T15:52:40.534Z,100787.06
2024-05-09T15:54:22.151Z,100784.16
2024-05-09T15:56:03.556Z,100791.53
2024-05-09T15:57:46.117Z,100793.19
2024-05-09T15:59:27.044Z,100788.13
2024-05-09T16:01:07.621Z,100793.31
2024-05-09T16:02:48.338Z,100794.41
2024-05-09T16:04:29.269Z,100789.81
2024-05-09T16:06:10.669Z,100790.91
2024-05-09T16:07:51.265Z,100786.78
2024-05-09T16:09:32.163Z,100793.63
2024-05-09T16:11:14.932Z,100789.53
2024-05-09T16:12:55.687Z,100783.59
2024-05-09T16:14:36.307Z,100783.84
2024-05-09T16:16:16.894Z,100781.16
2024-05-09T16:17:57.581Z,100786.63
2024-05-09T16:19:38.501Z,100780.53
2024-05-09T16:21:19.527Z,100785.53
2024-05-09T16:22:59.959Z,100797.19
2024-05-09T16:24:40.633Z,100787.44
2024-05-09T16:26:20.831Z,100790.91
2024-05-09T16:28:01.923Z,100789.94
2024-05-09T16:29:43.971Z,100787.78
2024-05-09T16:31:24.984Z,100784.47
2024-05-09T16:33:06.429Z,100789.81
2024-05-09T16:34:47.128Z,100778.84
2024-05-09T16:36:27.928Z,100782.91
2024-05-09T16:38:08.724Z,100782.06
2024-05-09T16:39:49.522Z,100783.00
2024-05-09T16:41:30.271Z,100782.06
2024-05-09T16:43:13.978Z,100782.16
2024-05-09T16:44:54.550Z,100777.53
2024-05-09T16:46:35.114Z,100784.38
2024-05-09T16:48:16.095Z,100780.41
2024-05-09T16:49:56.834Z,100778.97
2024-05-09T16:51:37.153Z,100780.19
2024-05-09T16:53:19.122Z,100784.22
2024-05-09T16:54:59.661Z,100785.53
2024-05-09T16:56:40.353Z,100786.91
2024-05-09T16:58:20.878Z,100782.16
2024-05-09T17:00:02.098Z,100775.19
2024-05-09T17:01:42.589Z,100780.59
2024-05-09T17:03:23.760Z,100783.22
2024-05-09T17:05:05.040Z,100772.25
2024-05-09T17:06:46.072Z,100784.97
2024-05-09T17:08:26.830Z,100779.91
2024-05-09T17:10:12.494Z,100776.56
2024-05-09T17:11:59.873Z,100769.91
2024-05-09T17:13:41.010Z,100779.34
2024-05-09T17:15:21.826Z,100777.16
2024-05-09T17:17:02.709Z,100782.25
2024-05-09T17:18:43.552Z,100772.28
2024-05-09T17:20:31.851Z,100771.63
2024-05-09T17:22:16.056Z,100773.28
2024-05-09T17:23:57.094Z,100773.34
2024-05-09T17:25:37.491Z,100774.41
2024-05-09T17:27:17.879Z,100770.09
2024-05-09T17:28:59.498Z,100766.59
2024-05-09T17:30:41.950Z,100771.44
2024-05-09T17:32:22.987Z,100763.50
2024-05-09T17:34:03.044Z,100767.06
2024-05-09T17:35:45.889Z,100767.22
2024-05-09T17:37:26.902Z,100764.28
2024-05-09T17:39:07.777Z,100768.50
2024-05-09T17:40:47.891Z,100771.84
2024-05-09T17:42:28.919Z,100767.91
2024-05-09T17:44:09.504Z,100765.06
2024-05-09T17:45:49.826Z,100768.06
2024-05-09T17:47:30.742Z,100767.00
2024-05-09T17:49:11.176Z,100765.66
2024-05-09T17:50:52.360Z,100770.84
2024-05-09T17:52:32.917Z,100771.00
2024-05-09T17:54:13.904Z,100773.44
2024-05-09T17:55:56.466Z,100771.03
2024-05-09T17:57:37.493Z,100766.97
2024-05-09T17:59:18.068Z,100775.31
2024-05-09T18:00:59.031Z,100771.03
2024-05-09T18:02:39.528Z,100770.50
2024-05-09T18:04:20.728Z,100775.84
2024-05-09T18:06:01.745Z,100771.91
2024-05-09T18:07:42.574Z,100779.25
2024-05-09T18:09:23.142Z,100775.72
2024-05-09T18:11:03.487Z,100770.59
2024-05-09T18:12:44.595Z,100768.91
2024-05-09T18:14:25.009Z,100774.44
2024-05-09T18:16:06.537Z,100778.75
2024-05-09T18:17:47.005Z,100778.78
2024-05-09T18:19:27.999Z,100771.44
2024-05-09T18:21:08.877Z,100783.25
2024-05-09T18:22:49.626Z,100784.78
2024-05-09T18:24:30.164Z,100779.28
2024-05-09T18:26:10.909Z,100778.94
2024-05-09T18:27:51.701Z,100777.44
2024-05-09T18:29:32.636Z,100784.09
2024-05-09T18:31:15.186Z,100781.91
2024-05-09T18:32:55.302Z,100778.09
2024-05-09T18:34:36.072Z,100791.94
2024-05-09T18:36:16.797Z,100787.25
2024-05-09T18:37:57.550Z,100786.91
2024-05-09T18:39:39.297Z,100790.91
2024-05-09T18:41:21.046Z,100786.72
2024-05-09T18:43:01.677Z,100795.09
2024-05-09T18:44:42.270Z,100792.09
2024-05-09T18:46:23.328Z,100800.22
2024-05-09T18:48:05.049Z,100794.50
2024-05-09T18:49:46.556Z,100797.78
2024-05-09T18:51:26.900Z,100793.97
2024-05-09T18:53:09.915Z,100797.09
2024-05-09T18:54:51.912Z,100798.22
2024-05-09T18:56:32.299Z,100800.53
2024-05-09T18:58:13.394Z,100804.91
2024-05-09T18:59:54.028Z,100803.56
2024-05-09T19:01:36.387Z,100805.78
2024-05-09T19:03:17.159Z,100803.81
2024-05-09T19:04:57.996Z,100810.25
2024-05-09T19:06:39.108Z,100804.84
2024-05-09T19:08:19.769Z,100811.34
2024-05-09T19:10:00.800Z,100812.81
2024-05-09T19:11:41.808Z,100812.13
2024-05-09T19:13:22.723Z,100811.47
2024-05-09T19:15:03.877Z,100817.47
2024-05-09T19:16:44.823Z,100815.47
2024-05-09T19:18:25.503Z,100816.13
2024-05-09T19:20:09.152Z,100821.81
2024-05-09T19:21:52.011Z,100824.50
2024-05-09T19:23:37.805Z,100823.94